DAL1348 KLIT-KATL
Flight info
| Callsign | DAL1348 |
|---|---|
| Flight time | 1h 11m |
| Altitude | 35000 |
| Route | MICKE MEMFS HUTCC KNSAW RUSSA GLAVN2 |
| Aircraft | A319/M-SDE3FGHIRWY/LB1 |
Departure
| Time | 2026-05-05 00:13 |
|---|---|
| Airport | Bill & Hillary Clinton National Airport/Adams Field (KLIT) |
Arrival
| Time | 2026-05-05 01:24 |
|---|---|
| Airport | Hartsfield Jackson Atlanta International Airport (KATL) |
| Time | Latitude | Longitude | Altitude | Speed | Heading |
|---|---|---|---|---|---|
| 2026-05-04 23:36 | 34.73028 | -92.22027 | 267 ft | 0 kts | 112° |
| 2026-05-05 00:03 | 34.73031 | -92.22035 | 286 ft | 4 kts | 111° |
| 2026-05-05 00:03 | 34.73041 | -92.22066 | 287 ft | 4 kts | 108° |
| 2026-05-05 00:03 | 34.73048 | -92.22097 | 268 ft | 4 kts | 100° |
| 2026-05-05 00:04 | 34.73049 | -92.22128 | 269 ft | 4 kts | 57° |
| 2026-05-05 00:04 | 34.73043 | -92.22137 | 269 ft | 0 kts | 21° |
| 2026-05-05 00:08 | 34.73048 | -92.22135 | 269 ft | 2 kts | 21° |
| 2026-05-05 00:08 | 34.73081 | -92.22119 | 269 ft | 8 kts | 21° |
| 2026-05-05 00:08 | 34.73139 | -92.22093 | 268 ft | 10 kts | 21° |
| 2026-05-05 00:08 | 34.73205 | -92.22062 | 267 ft | 11 kts | 17° |
| 2026-05-05 00:09 | 34.73257 | -92.22118 | 267 ft | 12 kts | 292° |
| 2026-05-05 00:09 | 34.73290 | -92.22208 | 267 ft | 12 kts | 312° |
| 2026-05-05 00:09 | 34.73360 | -92.22195 | 267 ft | 12 kts | 45° |
| 2026-05-05 00:09 | 34.73416 | -92.22124 | 267 ft | 12 kts | 44° |
| 2026-05-05 00:10 | 34.73482 | -92.22045 | 264 ft | 14 kts | 47° |
| 2026-05-05 00:10 | 34.73551 | -92.21951 | 264 ft | 15 kts | 46° |
| 2026-05-05 00:10 | 34.73621 | -92.21861 | 264 ft | 14 kts | 47° |
| 2026-05-05 00:10 | 34.73690 | -92.21771 | 264 ft | 15 kts | 45° |
| 2026-05-05 00:11 | 34.73711 | -92.21752 | 264 ft | 3 kts | 29° |
| 2026-05-05 00:11 | 34.73735 | -92.21747 | 264 ft | 4 kts | 355° |
| 2026-05-05 00:11 | 34.73765 | -92.21768 | 263 ft | 6 kts | 319° |
| 2026-05-05 00:11 | 34.73788 | -92.21824 | 261 ft | 8 kts | 270° |
| 2026-05-05 00:12 | 34.73769 | -92.21865 | 261 ft | 4 kts | 229° |
| 2026-05-05 00:12 | 34.73748 | -92.21893 | 261 ft | 6 kts | 227° |
| 2026-05-05 00:12 | 34.73636 | -92.22033 | 261 ft | 57 kts | 226° |
| 2026-05-05 00:12 | 34.73208 | -92.22582 | 264 ft | 118 kts | 226° |
| 2026-05-05 00:13 | 34.72517 | -92.23467 | 391 ft | 156 kts | 225° |
| 2026-05-05 00:13 | 34.71785 | -92.24426 | 1074 ft | 153 kts | 225° |
| 2026-05-05 00:13 | 34.71060 | -92.25365 | 1770 ft | 152 kts | 221° |
| 2026-05-05 00:13 | 34.70200 | -92.26138 | 2197 ft | 166 kts | 198° |
| 2026-05-05 00:14 | 34.68992 | -92.25940 | 2521 ft | 196 kts | 159° |
| 2026-05-05 00:14 | 34.67674 | -92.25192 | 2893 ft | 224 kts | 159° |
| 2026-05-05 00:14 | 34.66182 | -92.24369 | 3378 ft | 246 kts | 159° |
| 2026-05-05 00:14 | 34.64573 | -92.23508 | 3850 ft | 256 kts | 159° |
| 2026-05-05 00:15 | 34.62954 | -92.22626 | 3971 ft | 255 kts | 159° |
| 2026-05-05 00:15 | 34.61331 | -92.21747 | 4003 ft | 255 kts | 159° |
| 2026-05-05 00:15 | 34.59709 | -92.20861 | 4009 ft | 255 kts | 159° |
| 2026-05-05 00:15 | 34.58094 | -92.19987 | 4008 ft | 254 kts | 159° |
| 2026-05-05 00:16 | 34.56479 | -92.19123 | 4009 ft | 255 kts | 160° |
| 2026-05-05 00:16 | 34.54852 | -92.18237 | 4010 ft | 256 kts | 159° |
| 2026-05-05 00:16 | 34.53232 | -92.17352 | 4018 ft | 255 kts | 159° |
| 2026-05-05 00:16 | 34.51744 | -92.16151 | 4136 ft | 269 kts | 136° |
| 2026-05-05 00:17 | 34.50806 | -92.14140 | 5092 ft | 280 kts | 110° |
| 2026-05-05 00:17 | 34.50673 | -92.11746 | 5961 ft | 293 kts | 83° |
| 2026-05-05 00:17 | 34.50926 | -92.09267 | 6790 ft | 300 kts | 84° |
| 2026-05-05 00:17 | 34.51063 | -92.06715 | 7614 ft | 306 kts | 86° |
| 2026-05-05 00:18 | 34.51144 | -92.04116 | 8485 ft | 311 kts | 87° |
| 2026-05-05 00:18 | 34.51212 | -92.01479 | 9355 ft | 315 kts | 86° |
| 2026-05-05 00:18 | 34.51290 | -91.98800 | 10163 ft | 321 kts | 86° |
| 2026-05-05 00:18 | 34.51387 | -91.95998 | 10494 ft | 345 kts | 86° |
| 2026-05-05 00:19 | 34.51505 | -91.93042 | 11045 ft | 356 kts | 85° |
| 2026-05-05 00:19 | 34.51634 | -91.90016 | 11804 ft | 361 kts | 85° |
| 2026-05-05 00:19 | 34.51770 | -91.86961 | 12588 ft | 365 kts | 85° |
| 2026-05-05 00:19 | 34.51909 | -91.83878 | 13357 ft | 369 kts | 85° |
| 2026-05-05 00:20 | 34.52048 | -91.80755 | 14078 ft | 372 kts | 84° |
| 2026-05-05 00:20 | 34.52188 | -91.77605 | 14750 ft | 376 kts | 84° |
| 2026-05-05 00:20 | 34.52325 | -91.74430 | 15418 ft | 380 kts | 84° |
| 2026-05-05 00:20 | 34.52461 | -91.71215 | 16077 ft | 383 kts | 84° |
| 2026-05-05 00:21 | 34.52596 | -91.67971 | 16722 ft | 387 kts | 84° |
| 2026-05-05 00:21 | 34.52730 | -91.64695 | 17395 ft | 391 kts | 84° |
| 2026-05-05 00:21 | 34.52865 | -91.61434 | 18044 ft | 394 kts | 84° |
| 2026-05-05 00:21 | 34.53005 | -91.58098 | 18624 ft | 398 kts | 84° |
| 2026-05-05 00:22 | 34.53149 | -91.54688 | 19171 ft | 402 kts | 84° |
| 2026-05-05 00:22 | 34.53289 | -91.51327 | 19715 ft | 406 kts | 84° |
| 2026-05-05 00:22 | 34.53430 | -91.47905 | 20266 ft | 410 kts | 84° |
| 2026-05-05 00:22 | 34.53574 | -91.44374 | 20828 ft | 414 kts | 84° |
| 2026-05-05 00:23 | 34.53716 | -91.40863 | 21373 ft | 418 kts | 84° |
| 2026-05-05 00:23 | 34.53857 | -91.37325 | 21912 ft | 422 kts | 84° |
| 2026-05-05 00:23 | 34.53999 | -91.33753 | 22447 ft | 426 kts | 84° |
| 2026-05-05 00:23 | 34.54139 | -91.30147 | 22978 ft | 430 kts | 85° |
| 2026-05-05 00:24 | 34.54277 | -91.26554 | 23490 ft | 434 kts | 84° |
| 2026-05-05 00:24 | 34.54421 | -91.22833 | 23924 ft | 439 kts | 84° |
| 2026-05-05 00:24 | 34.54564 | -91.19166 | 24329 ft | 443 kts | 84° |
| 2026-05-05 00:24 | 34.54709 | -91.15417 | 24724 ft | 447 kts | 84° |
| 2026-05-05 00:25 | 34.54852 | -91.11631 | 25115 ft | 451 kts | 84° |
| 2026-05-05 00:25 | 34.54994 | -91.07815 | 25501 ft | 455 kts | 84° |
| 2026-05-05 00:25 | 34.55139 | -91.03960 | 25888 ft | 459 kts | 83° |
| 2026-05-05 00:25 | 34.55286 | -91.00074 | 26261 ft | 463 kts | 83° |
| 2026-05-05 00:26 | 34.55431 | -90.96156 | 26637 ft | 467 kts | 83° |
| 2026-05-05 00:26 | 34.55575 | -90.92201 | 27010 ft | 471 kts | 83° |
| 2026-05-05 00:26 | 34.55719 | -90.88217 | 27366 ft | 475 kts | 83° |
| 2026-05-05 00:26 | 34.55864 | -90.84200 | 27727 ft | 479 kts | 83° |
| 2026-05-05 00:27 | 34.56007 | -90.80151 | 28075 ft | 482 kts | 83° |
| 2026-05-05 00:27 | 34.56150 | -90.76064 | 28438 ft | 486 kts | 83° |
| 2026-05-05 00:27 | 34.56293 | -90.71954 | 28795 ft | 490 kts | 82° |
| 2026-05-05 00:27 | 34.56436 | -90.67809 | 29158 ft | 493 kts | 82° |
| 2026-05-05 00:28 | 34.56576 | -90.63641 | 29503 ft | 497 kts | 82° |
| 2026-05-05 00:28 | 34.56715 | -90.59441 | 29855 ft | 501 kts | 82° |
| 2026-05-05 00:28 | 34.56854 | -90.55211 | 30143 ft | 504 kts | 82° |
| 2026-05-05 00:28 | 34.56997 | -90.50945 | 30403 ft | 508 kts | 82° |
| 2026-05-05 00:29 | 34.57140 | -90.46639 | 30657 ft | 512 kts | 82° |
| 2026-05-05 00:29 | 34.57283 | -90.42312 | 30899 ft | 516 kts | 81° |
| 2026-05-05 00:29 | 34.57424 | -90.37942 | 31138 ft | 520 kts | 81° |
| 2026-05-05 00:29 | 34.57563 | -90.33544 | 31382 ft | 523 kts | 81° |
| 2026-05-05 00:30 | 34.57699 | -90.29121 | 31622 ft | 527 kts | 81° |
| 2026-05-05 00:30 | 34.57835 | -90.24657 | 31865 ft | 531 kts | 81° |
| 2026-05-05 00:30 | 34.57968 | -90.20171 | 32108 ft | 534 kts | 81° |
| 2026-05-05 00:30 | 34.58101 | -90.15671 | 32452 ft | 534 kts | 81° |
| 2026-05-05 00:31 | 34.58234 | -90.11155 | 32779 ft | 536 kts | 80° |
| 2026-05-05 00:31 | 34.58367 | -90.06634 | 33095 ft | 538 kts | 80° |
| 2026-05-05 00:31 | 34.58505 | -90.02093 | 33416 ft | 539 kts | 79° |
| 2026-05-05 00:31 | 34.58643 | -89.97540 | 33741 ft | 541 kts | 79° |
| 2026-05-05 00:32 | 34.58777 | -89.92971 | 34034 ft | 542 kts | 79° |
| 2026-05-05 00:32 | 34.58904 | -89.88396 | 34340 ft | 543 kts | 79° |
| 2026-05-05 00:32 | 34.59022 | -89.83847 | 34688 ft | 542 kts | 79° |
| 2026-05-05 00:32 | 34.59137 | -89.79249 | 34887 ft | 542 kts | 79° |
| 2026-05-05 00:33 | 34.59246 | -89.74713 | 34932 ft | 533 kts | 79° |
| 2026-05-05 00:33 | 34.59463 | -89.65827 | 34945 ft | 523 kts | 78° |
| 2026-05-05 00:34 | 34.59702 | -89.57023 | 34948 ft | 521 kts | 78° |
| 2026-05-05 00:34 | 34.59932 | -89.48240 | 34947 ft | 520 kts | 78° |
| 2026-05-05 00:35 | 34.60142 | -89.39473 | 34947 ft | 519 kts | 79° |
| 2026-05-05 00:35 | 34.60341 | -89.30791 | 34946 ft | 518 kts | 79° |
| 2026-05-05 00:36 | 34.60536 | -89.22008 | 34948 ft | 517 kts | 79° |
| 2026-05-05 00:36 | 34.60695 | -89.14768 | 34952 ft | 516 kts | 79° |
| 2026-05-05 00:38 | 34.61255 | -88.87523 | 34966 ft | 512 kts | 80° |
| 2026-05-05 00:38 | 34.61424 | -88.78895 | 34969 ft | 511 kts | 80° |
| 2026-05-05 00:39 | 34.61577 | -88.70300 | 34967 ft | 509 kts | 81° |
| 2026-05-05 00:39 | 34.61725 | -88.61704 | 34971 ft | 508 kts | 81° |
| 2026-05-05 00:40 | 34.61881 | -88.53146 | 34966 ft | 507 kts | 81° |
| 2026-05-05 00:40 | 34.62020 | -88.44604 | 34967 ft | 506 kts | 81° |
| 2026-05-05 00:41 | 34.62143 | -88.36065 | 34966 ft | 505 kts | 81° |
| 2026-05-05 00:41 | 34.62271 | -88.27558 | 34969 ft | 504 kts | 81° |
| 2026-05-05 00:42 | 34.62399 | -88.19056 | 34969 ft | 503 kts | 81° |
| 2026-05-05 00:42 | 34.62518 | -88.10565 | 34970 ft | 503 kts | 81° |
| 2026-05-05 00:43 | 34.62624 | -88.02099 | 34974 ft | 502 kts | 82° |
| 2026-05-05 00:43 | 34.62723 | -87.93629 | 34977 ft | 501 kts | 82° |
| 2026-05-05 00:44 | 34.62821 | -87.85177 | 34977 ft | 500 kts | 82° |
| 2026-05-05 00:44 | 34.62908 | -87.76749 | 34979 ft | 499 kts | 82° |
| 2026-05-05 00:45 | 34.62976 | -87.69747 | 34977 ft | 499 kts | 82° |
| 2026-05-05 00:45 | 34.63065 | -87.59976 | 34984 ft | 498 kts | 82° |
| 2026-05-05 00:46 | 34.63129 | -87.51585 | 34983 ft | 496 kts | 82° |
| 2026-05-05 00:46 | 34.63085 | -87.43201 | 34981 ft | 501 kts | 90° |
| 2026-05-05 00:47 | 34.62007 | -87.36200 | 34989 ft | 506 kts | 98° |
| 2026-05-05 00:47 | 34.60460 | -87.27879 | 34984 ft | 505 kts | 98° |
| 2026-05-05 00:48 | 34.58909 | -87.19544 | 34770 ft | 512 kts | 98° |
| 2026-05-05 00:48 | 34.58125 | -87.15304 | 33901 ft | 518 kts | 98° |
| 2026-05-05 00:48 | 34.57337 | -87.11044 | 33199 ft | 516 kts | 99° |
| 2026-05-05 00:48 | 34.56564 | -87.06838 | 32944 ft | 504 kts | 99° |
| 2026-05-05 00:49 | 34.55843 | -87.02756 | 32975 ft | 487 kts | 98° |
| 2026-05-05 00:49 | 34.54501 | -86.94805 | 32984 ft | 478 kts | 99° |
| 2026-05-05 00:50 | 34.52657 | -86.87057 | 32989 ft | 478 kts | 105° |
| 2026-05-05 00:50 | 34.50670 | -86.79376 | 32990 ft | 477 kts | 105° |
| 2026-05-05 00:51 | 34.48648 | -86.71725 | 32989 ft | 476 kts | 105° |
| 2026-05-05 00:51 | 34.46636 | -86.64092 | 32993 ft | 475 kts | 105° |
| 2026-05-05 00:52 | 34.44647 | -86.56460 | 32987 ft | 474 kts | 105° |
| 2026-05-05 00:52 | 34.42671 | -86.48904 | 32845 ft | 474 kts | 106° |
| 2026-05-05 00:52 | 34.41669 | -86.45096 | 32220 ft | 474 kts | 107° |
| 2026-05-05 00:53 | 34.40672 | -86.41321 | 31779 ft | 469 kts | 107° |
| 2026-05-05 00:53 | 34.39679 | -86.37582 | 31313 ft | 465 kts | 107° |
| 2026-05-05 00:53 | 34.38699 | -86.33874 | 30846 ft | 460 kts | 107° |
| 2026-05-05 00:53 | 34.37733 | -86.30198 | 30410 ft | 456 kts | 108° |
| 2026-05-05 00:54 | 34.36771 | -86.26562 | 29945 ft | 451 kts | 108° |
| 2026-05-05 00:54 | 34.35819 | -86.22969 | 29495 ft | 445 kts | 108° |
| 2026-05-05 00:54 | 34.34879 | -86.19428 | 29084 ft | 438 kts | 108° |
| 2026-05-05 00:54 | 34.33949 | -86.15941 | 28669 ft | 433 kts | 108° |
| 2026-05-05 00:55 | 34.33035 | -86.12504 | 28276 ft | 427 kts | 108° |
| 2026-05-05 00:55 | 34.32148 | -86.09095 | 27886 ft | 422 kts | 108° |
| 2026-05-05 00:55 | 34.31279 | -86.05714 | 27479 ft | 419 kts | 108° |
| 2026-05-05 00:55 | 34.30419 | -86.02368 | 27075 ft | 415 kts | 108° |
| 2026-05-05 00:56 | 34.29558 | -85.99042 | 26675 ft | 412 kts | 108° |
| 2026-05-05 00:56 | 34.28705 | -85.95752 | 26247 ft | 410 kts | 108° |
| 2026-05-05 00:56 | 34.27856 | -85.92474 | 25830 ft | 407 kts | 108° |
| 2026-05-05 00:56 | 34.27009 | -85.89225 | 25398 ft | 404 kts | 108° |
| 2026-05-05 00:57 | 34.26164 | -85.85991 | 24973 ft | 402 kts | 108° |
| 2026-05-05 00:57 | 34.25322 | -85.82776 | 24526 ft | 400 kts | 108° |
| 2026-05-05 00:57 | 34.24482 | -85.79576 | 24085 ft | 399 kts | 108° |
| 2026-05-05 00:57 | 34.23646 | -85.76392 | 23642 ft | 397 kts | 108° |
| 2026-05-05 00:58 | 34.22816 | -85.73222 | 23141 ft | 395 kts | 108° |
| 2026-05-05 00:58 | 34.21993 | -85.70071 | 22713 ft | 391 kts | 108° |
| 2026-05-05 00:58 | 34.21188 | -85.66997 | 22289 ft | 387 kts | 108° |
| 2026-05-05 00:58 | 34.20368 | -85.63872 | 21867 ft | 383 kts | 108° |
| 2026-05-05 00:59 | 34.19568 | -85.60820 | 21456 ft | 380 kts | 108° |
| 2026-05-05 00:59 | 34.18780 | -85.57831 | 21052 ft | 377 kts | 109° |
| 2026-05-05 00:59 | 34.17972 | -85.54793 | 20638 ft | 374 kts | 109° |
| 2026-05-05 00:59 | 34.17178 | -85.51813 | 20235 ft | 371 kts | 109° |
| 2026-05-05 01:00 | 34.16392 | -85.48858 | 19836 ft | 369 kts | 109° |
| 2026-05-05 01:00 | 34.15624 | -85.45959 | 19449 ft | 366 kts | 109° |
| 2026-05-05 01:00 | 34.14852 | -85.43037 | 19058 ft | 365 kts | 109° |
| 2026-05-05 01:00 | 34.14086 | -85.40125 | 18662 ft | 363 kts | 109° |
| 2026-05-05 01:01 | 34.13327 | -85.37232 | 18270 ft | 362 kts | 109° |
| 2026-05-05 01:01 | 34.12577 | -85.34335 | 17842 ft | 360 kts | 109° |
| 2026-05-05 01:01 | 34.11838 | -85.31466 | 17465 ft | 357 kts | 109° |
| 2026-05-05 01:01 | 34.11106 | -85.28618 | 17061 ft | 355 kts | 109° |
| 2026-05-05 01:02 | 34.10374 | -85.25780 | 16664 ft | 353 kts | 109° |
| 2026-05-05 01:02 | 34.09644 | -85.22965 | 16293 ft | 350 kts | 109° |
| 2026-05-05 01:02 | 34.08918 | -85.20169 | 15922 ft | 348 kts | 109° |
| 2026-05-05 01:02 | 34.08195 | -85.17394 | 15577 ft | 346 kts | 109° |
| 2026-05-05 01:03 | 34.07476 | -85.14634 | 15219 ft | 344 kts | 109° |
| 2026-05-05 01:03 | 34.06762 | -85.11891 | 14865 ft | 342 kts | 109° |
| 2026-05-05 01:03 | 34.06049 | -85.09161 | 14509 ft | 340 kts | 109° |
| 2026-05-05 01:03 | 34.05212 | -85.06514 | 14151 ft | 336 kts | 120° |
| 2026-05-05 01:04 | 34.03923 | -85.04200 | 13859 ft | 329 kts | 134° |
| 2026-05-05 01:04 | 34.00630 | -85.00621 | 13540 ft | 315 kts | 142° |
| 2026-05-05 01:04 | 33.98973 | -84.98899 | 13363 ft | 313 kts | 142° |
| 2026-05-05 01:05 | 33.97330 | -84.97185 | 13217 ft | 312 kts | 142° |
| 2026-05-05 01:05 | 33.95689 | -84.95471 | 13052 ft | 311 kts | 142° |
| 2026-05-05 01:05 | 33.94057 | -84.93768 | 12888 ft | 311 kts | 142° |
| 2026-05-05 01:05 | 33.92424 | -84.92071 | 12724 ft | 310 kts | 142° |
| 2026-05-05 01:06 | 33.90795 | -84.90382 | 12558 ft | 309 kts | 142° |
| 2026-05-05 01:06 | 33.89168 | -84.88698 | 12392 ft | 308 kts | 142° |
| 2026-05-05 01:06 | 33.87547 | -84.87021 | 12224 ft | 307 kts | 142° |
| 2026-05-05 01:06 | 33.85929 | -84.85350 | 12062 ft | 306 kts | 142° |
| 2026-05-05 01:07 | 33.84338 | -84.83705 | 11892 ft | 305 kts | 142° |
| 2026-05-05 01:07 | 33.82727 | -84.82043 | 11734 ft | 305 kts | 142° |
| 2026-05-05 01:07 | 33.81122 | -84.80389 | 11570 ft | 304 kts | 142° |
| 2026-05-05 01:07 | 33.79520 | -84.78740 | 11404 ft | 303 kts | 142° |
| 2026-05-05 01:08 | 33.77923 | -84.77094 | 11242 ft | 302 kts | 142° |
| 2026-05-05 01:08 | 33.76329 | -84.75451 | 11081 ft | 301 kts | 142° |
| 2026-05-05 01:08 | 33.74843 | -84.73681 | 10913 ft | 303 kts | 129° |
| 2026-05-05 01:08 | 33.73800 | -84.71488 | 10758 ft | 305 kts | 113° |
| 2026-05-05 01:09 | 33.73300 | -84.69016 | 10594 ft | 306 kts | 96° |
| 2026-05-05 01:09 | 33.73271 | -84.66460 | 10432 ft | 306 kts | 90° |
| 2026-05-05 01:09 | 33.73282 | -84.63901 | 10265 ft | 306 kts | 90° |
| 2026-05-05 01:09 | 33.73289 | -84.61352 | 10102 ft | 305 kts | 91° |
| 2026-05-05 01:10 | 33.73298 | -84.58808 | 9934 ft | 304 kts | 91° |
| 2026-05-05 01:10 | 33.73305 | -84.56270 | 9758 ft | 303 kts | 91° |
| 2026-05-05 01:10 | 33.73307 | -84.53741 | 9599 ft | 302 kts | 91° |
| 2026-05-05 01:10 | 33.73306 | -84.51222 | 9441 ft | 301 kts | 91° |
| 2026-05-05 01:11 | 33.73303 | -84.48705 | 9279 ft | 301 kts | 91° |
| 2026-05-05 01:11 | 33.73300 | -84.46209 | 9120 ft | 300 kts | 91° |
| 2026-05-05 01:11 | 33.73297 | -84.43702 | 8966 ft | 298 kts | 91° |
| 2026-05-05 01:11 | 33.73296 | -84.41214 | 8813 ft | 297 kts | 91° |
| 2026-05-05 01:12 | 33.73298 | -84.38734 | 8655 ft | 296 kts | 91° |
| 2026-05-05 01:12 | 33.73296 | -84.36257 | 8495 ft | 295 kts | 92° |
| 2026-05-05 01:12 | 33.73291 | -84.33800 | 8337 ft | 294 kts | 92° |
| 2026-05-05 01:12 | 33.73289 | -84.31346 | 8182 ft | 293 kts | 91° |
| 2026-05-05 01:13 | 33.73292 | -84.28902 | 8019 ft | 292 kts | 91° |
| 2026-05-05 01:13 | 33.73298 | -84.26464 | 7867 ft | 291 kts | 91° |
| 2026-05-05 01:13 | 33.73304 | -84.24033 | 7713 ft | 290 kts | 92° |
| 2026-05-05 01:13 | 33.73308 | -84.21610 | 7555 ft | 289 kts | 92° |
| 2026-05-05 01:14 | 33.73310 | -84.19198 | 7406 ft | 289 kts | 91° |
| 2026-05-05 01:14 | 33.73310 | -84.16796 | 7255 ft | 287 kts | 92° |
| 2026-05-05 01:14 | 33.73308 | -84.14395 | 7092 ft | 287 kts | 92° |
| 2026-05-05 01:14 | 33.73307 | -84.12005 | 6937 ft | 285 kts | 92° |
| 2026-05-05 01:15 | 33.73305 | -84.09639 | 6549 ft | 283 kts | 92° |
| 2026-05-05 01:15 | 33.73220 | -84.07296 | 6133 ft | 279 kts | 104° |
| 2026-05-05 01:15 | 33.72428 | -84.05239 | 5745 ft | 269 kts | 132° |
| 2026-05-05 01:15 | 33.70966 | -84.03927 | 5342 ft | 261 kts | 161° |
| 2026-05-05 01:16 | 33.69212 | -84.03448 | 4928 ft | 258 kts | 173° |
| 2026-05-05 01:16 | 33.67439 | -84.03158 | 4504 ft | 256 kts | 174° |
| 2026-05-05 01:16 | 33.65678 | -84.03195 | 4092 ft | 253 kts | 196° |
| 2026-05-05 01:16 | 33.64233 | -84.04247 | 3986 ft | 239 kts | 227° |
| 2026-05-05 01:17 | 33.63535 | -84.05964 | 4000 ft | 226 kts | 259° |
| 2026-05-05 01:17 | 33.63749 | -84.07760 | 3989 ft | 216 kts | 294° |
| 2026-05-05 01:17 | 33.64708 | -84.09077 | 4010 ft | 207 kts | 317° |
| 2026-05-05 01:17 | 33.65562 | -84.10405 | 4001 ft | 200 kts | 282° |
| 2026-05-05 01:18 | 33.65430 | -84.11981 | 4015 ft | 191 kts | 241° |
| 2026-05-05 01:18 | 33.64852 | -84.13407 | 3988 ft | 192 kts | 254° |
| 2026-05-05 01:18 | 33.64926 | -84.15018 | 4022 ft | 197 kts | 276° |
| 2026-05-05 01:18 | 33.64969 | -84.16646 | 4015 ft | 195 kts | 265° |
| 2026-05-05 01:19 | 33.64944 | -84.18267 | 4008 ft | 194 kts | 266° |
| 2026-05-05 01:19 | 33.64938 | -84.19891 | 4012 ft | 193 kts | 266° |
| 2026-05-05 01:19 | 33.64940 | -84.21428 | 4010 ft | 177 kts | 266° |
| 2026-05-05 01:19 | 33.64941 | -84.22871 | 3875 ft | 170 kts | 266° |
| 2026-05-05 01:20 | 33.64943 | -84.24274 | 3685 ft | 167 kts | 266° |
| 2026-05-05 01:20 | 33.64944 | -84.25657 | 3484 ft | 164 kts | 266° |
| 2026-05-05 01:20 | 33.64945 | -84.27021 | 3276 ft | 162 kts | 266° |
| 2026-05-05 01:20 | 33.64947 | -84.28355 | 3067 ft | 158 kts | 266° |
| 2026-05-05 01:21 | 33.64949 | -84.29662 | 2861 ft | 155 kts | 265° |
| 2026-05-05 01:21 | 33.64950 | -84.30920 | 2669 ft | 145 kts | 265° |
| 2026-05-05 01:21 | 33.64951 | -84.32098 | 2478 ft | 138 kts | 265° |
| 2026-05-05 01:21 | 33.64951 | -84.33233 | 2301 ft | 135 kts | 265° |
| 2026-05-05 01:22 | 33.64952 | -84.34353 | 2127 ft | 134 kts | 265° |
| 2026-05-05 01:22 | 33.64952 | -84.35467 | 1950 ft | 133 kts | 265° |
| 2026-05-05 01:22 | 33.64953 | -84.36576 | 1771 ft | 133 kts | 266° |
| 2026-05-05 01:22 | 33.64953 | -84.37684 | 1592 ft | 133 kts | 268° |
| 2026-05-05 01:23 | 33.64955 | -84.38804 | 1385 ft | 134 kts | 269° |
| 2026-05-05 01:23 | 33.64962 | -84.39920 | 1211 ft | 134 kts | 269° |
| 2026-05-05 01:23 | 33.64956 | -84.41039 | 1053 ft | 134 kts | 267° |
| 2026-05-05 01:23 | 33.64956 | -84.42090 | 1010 ft | 111 kts | 269° |
| 2026-05-05 01:24 | 33.64956 | -84.42806 | 1015 ft | 62 kts | 270° |
| 2026-05-05 01:24 | 33.64936 | -84.43144 | 1019 ft | 28 kts | 252° |
| 2026-05-05 01:24 | 33.64879 | -84.43297 | 1020 ft | 13 kts | 238° |
| 2026-05-05 01:24 | 33.64852 | -84.43323 | 1022 ft | 0 kts | 208° |
| 2026-05-05 01:27 | 33.64851 | -84.43324 | 1022 ft | 2 kts | 211° |
| 2026-05-05 01:27 | 33.64842 | -84.43367 | 1023 ft | 6 kts | 274° |
| 2026-05-05 01:27 | 33.64845 | -84.43424 | 1023 ft | 7 kts | 266° |
| 2026-05-05 01:27 | 33.64842 | -84.43484 | 1024 ft | 8 kts | 267° |
| 2026-05-05 01:28 | 33.64819 | -84.43532 | 1025 ft | 6 kts | 216° |
| 2026-05-05 01:28 | 33.64758 | -84.43575 | 1030 ft | 11 kts | 210° |
| 2026-05-05 01:28 | 33.64690 | -84.43623 | 1030 ft | 12 kts | 211° |
| 2026-05-05 01:28 | 33.64614 | -84.43671 | 1031 ft | 12 kts | 197° |
| 2026-05-05 01:29 | 33.64547 | -84.43628 | 1032 ft | 12 kts | 110° |
| 2026-05-05 01:29 | 33.64544 | -84.43525 | 1032 ft | 13 kts | 90° |
| 2026-05-05 01:29 | 33.64507 | -84.43432 | 1031 ft | 14 kts | 162° |
| 2026-05-05 01:29 | 33.64405 | -84.43394 | 1027 ft | 17 kts | 172° |
| 2026-05-05 01:30 | 33.64280 | -84.43392 | 1021 ft | 19 kts | 180° |
| 2026-05-05 01:30 | 33.64148 | -84.43392 | 1019 ft | 18 kts | 180° |
| 2026-05-05 01:30 | 33.64038 | -84.43392 | 1015 ft | 13 kts | 180° |
| 2026-05-05 01:30 | 33.63937 | -84.43394 | 1014 ft | 16 kts | 181° |
| 2026-05-05 01:31 | 33.63861 | -84.43395 | 1013 ft | 10 kts | 176° |
| 2026-05-05 01:31 | 33.63830 | -84.43350 | 1012 ft | 5 kts | 100° |
| 2026-05-05 01:31 | 33.63829 | -84.43335 | 1012 ft | 3 kts | 91° |
| 2026-05-05 01:31 | 33.63829 | -84.43316 | 1011 ft | 0 kts | 90° |